sensor_id;sensor_type;location;lat;lon;timestamp;pressure;altitude;pressure_sealevel;temperature
72405;BMP280;60395;52.020;113.548;2023-05-07T00:00:53;92817.13;;;29.90
72405;BMP280;60395;52.020;113.548;2023-05-07T00:03:56;92822.91;;;29.07
72405;BMP280;60395;52.020;113.548;2023-05-07T00:06:59;92814.66;;;29.30
72405;BMP280;60395;52.020;113.548;2023-05-07T00:10:04;92822.38;;;26.61
72405;BMP280;60395;52.020;113.548;2023-05-07T00:13:09;92826.16;;;25.08
72405;BMP280;60395;52.020;113.548;2023-05-07T00:16:12;92813.31;;;25.45
72405;BMP280;60395;52.020;113.548;2023-05-07T00:19:15;92814.34;;;26.18
72405;BMP280;60395;52.020;113.548;2023-05-07T00:22:19;92814.50;;;26.33
72405;BMP280;60395;52.020;113.548;2023-05-07T00:25:22;92809.59;;;26.36
72405;BMP280;60395;52.020;113.548;2023-05-07T00:28:25;92812.44;;;25.91
72405;BMP280;60395;52.020;113.548;2023-05-07T00:31:28;92810.47;;;25.47
72405;BMP280;60395;52.020;113.548;2023-05-07T00:34:32;92804.34;;;24.48
72405;BMP280;60395;52.020;113.548;2023-05-07T00:37:35;92805.22;;;24.92
72405;BMP280;60395;52.020;113.548;2023-05-07T00:40:38;92795.81;;;26.14
72405;BMP280;60395;52.020;113.548;2023-05-07T00:43:42;92796.34;;;26.83
72405;BMP280;60395;52.020;113.548;2023-05-07T00:46:45;92796.31;;;26.00
72405;BMP280;60395;52.020;113.548;2023-05-07T00:49:51;92782.72;;;24.50
72405;BMP280;60395;52.020;113.548;2023-05-07T00:52:55;92794.22;;;23.24
72405;BMP280;60395;52.020;113.548;2023-05-07T00:55:59;92791.69;;;22.39
72405;BMP280;60395;52.020;113.548;2023-05-07T00:59:03;92788.56;;;21.71
72405;BMP280;60395;52.020;113.548;2023-05-07T01:02:07;92791.47;;;21.10
72405;BMP280;60395;52.020;113.548;2023-05-07T01:05:12;92785.78;;;20.93
72405;BMP280;60395;52.020;113.548;2023-05-07T01:08:18;92773.75;;;20.58
72405;BMP280;60395;52.020;113.548;2023-05-07T01:11:21;92773.59;;;20.24
72405;BMP280;60395;52.020;113.548;2023-05-07T01:14:25;92772.13;;;20.02
72405;BMP280;60395;52.020;113.548;2023-05-07T01:17:29;92768.97;;;19.87
72405;BMP280;60395;52.020;113.548;2023-05-07T01:20:32;92764.34;;;19.86
72405;BMP280;60395;52.020;113.548;2023-05-07T01:23:36;92762.56;;;19.82
72405;BMP280;60395;52.020;113.548;2023-05-07T01:26:42;92756.78;;;19.65
72405;BMP280;60395;52.020;113.548;2023-05-07T01:29:50;92748.47;;;19.46
72405;BMP280;60395;52.020;113.548;2023-05-07T01:33:04;92755.41;;;19.66
72405;BMP280;60395;52.020;113.548;2023-05-07T01:36:11;92738.91;;;19.63
72405;BMP280;60395;52.020;113.548;2023-05-07T01:39:17;92742.91;;;19.75
72405;BMP280;60395;52.020;113.548;2023-05-07T01:42:21;92735.69;;;19.99
72405;BMP280;60395;52.020;113.548;2023-05-07T01:45:25;92745.28;;;20.06
72405;BMP280;60395;52.020;113.548;2023-05-07T01:48:29;92728.97;;;20.00
72405;BMP280;60395;52.020;113.548;2023-05-07T01:51:32;92747.09;;;19.85
72405;BMP280;60395;52.020;113.548;2023-05-07T01:54:36;92734.63;;;19.69
72405;BMP280;60395;52.020;113.548;2023-05-07T01:57:39;92733.69;;;19.74
72405;BMP280;60395;52.020;113.548;2023-05-07T02:00:43;92722.03;;;19.54
72405;BMP280;60395;52.020;113.548;2023-05-07T02:03:46;92722.47;;;19.34
72405;BMP280;60395;52.020;113.548;2023-05-07T02:06:57;92716.34;;;19.10
72405;BMP280;60395;52.020;113.548;2023-05-07T02:10:01;92705.69;;;19.10
72405;BMP280;60395;52.020;113.548;2023-05-07T02:13:04;92697.47;;;19.02
72405;BMP280;60395;52.020;113.548;2023-05-07T02:16:07;92695.81;;;18.81
72405;BMP280;60395;52.020;113.548;2023-05-07T02:19:12;92689.84;;;18.68
72405;BMP280;60395;52.020;113.548;2023-05-07T02:22:15;92696.16;;;18.88
72405;BMP280;60395;52.020;113.548;2023-05-07T02:25:19;92696.41;;;18.96
72405;BMP280;60395;52.020;113.548;2023-05-07T02:28:22;92712.88;;;19.14
72405;BMP280;60395;52.020;113.548;2023-05-07T02:31:33;92692.19;;;19.27
72405;BMP280;60395;52.020;113.548;2023-05-07T02:34:39;92701.81;;;19.47
72405;BMP280;60395;52.020;113.548;2023-05-07T02:37:42;92699.13;;;19.72
72405;BMP280;60395;52.020;113.548;2023-05-07T02:40:46;92699.44;;;19.91
72405;BMP280;60395;52.020;113.548;2023-05-07T02:43:50;92682.66;;;20.05
72405;BMP280;60395;52.020;113.548;2023-05-07T02:46:54;92700.44;;;20.21
72405;BMP280;60395;52.020;113.548;2023-05-07T02:49:57;92693.94;;;20.54
72405;BMP280;60395;52.020;113.548;2023-05-07T02:53:00;92689.22;;;20.78
72405;BMP280;60395;52.020;113.548;2023-05-07T02:56:04;92682.41;;;20.91
72405;BMP280;60395;52.020;113.548;2023-05-07T02:59:08;92676.50;;;21.12
72405;BMP280;60395;52.020;113.548;2023-05-07T03:02:15;92682.72;;;20.75
72405;BMP280;60395;52.020;113.548;2023-05-07T03:05:18;92677.16;;;20.56
72405;BMP280;60395;52.020;113.548;2023-05-07T03:08:21;92680.53;;;20.31
72405;BMP280;60395;52.020;113.548;2023-05-07T03:11:25;92679.56;;;20.13
72405;BMP280;60395;52.020;113.548;2023-05-07T03:14:28;92671.28;;;19.94
72405;BMP280;60395;52.020;113.548;2023-05-07T03:17:31;92667.66;;;19.87
72405;BMP280;60395;52.020;113.548;2023-05-07T03:20:35;92669.44;;;20.03
72405;BMP280;60395;52.020;113.548;2023-05-07T03:23:39;92672.72;;;20.16
72405;BMP280;60395;52.020;113.548;2023-05-07T03:26:42;92669.47;;;20.26
72405;BMP280;60395;52.020;113.548;2023-05-07T03:29:45;92676.47;;;20.09
72405;BMP280;60395;52.020;113.548;2023-05-07T03:32:49;92668.53;;;19.84
72405;BMP280;60395;52.020;113.548;2023-05-07T03:35:53;92677.69;;;19.87
72405;BMP280;60395;52.020;113.548;2023-05-07T03:38:58;92665.97;;;19.82
72405;BMP280;60395;52.020;113.548;2023-05-07T03:42:10;92653.75;;;19.24
72405;BMP280;60395;52.020;113.548;2023-05-07T03:45:13;92652.44;;;19.10
72405;BMP280;60395;52.020;113.548;2023-05-07T03:48:22;92654.91;;;19.27
72405;BMP280;60395;52.020;113.548;2023-05-07T03:51:28;92647.53;;;19.15
72405;BMP280;60395;52.020;113.548;2023-05-07T03:54:31;92643.38;;;19.05
72405;BMP280;60395;52.020;113.548;2023-05-07T03:57:35;92633.38;;;19.06
72405;BMP280;60395;52.020;113.548;2023-05-07T04:00:39;92634.47;;;19.23
72405;BMP280;60395;52.020;113.548;2023-05-07T04:03:54;92633.00;;;19.14
72405;BMP280;60395;52.020;113.548;2023-05-07T04:06:58;92632.44;;;19.24
72405;BMP280;60395;52.020;113.548;2023-05-07T04:10:02;92628.94;;;19.40
72405;BMP280;60395;52.020;113.548;2023-05-07T04:13:06;92608.88;;;19.41
72405;BMP280;60395;52.020;113.548;2023-05-07T04:16:10;92614.84;;;19.41
72405;BMP280;60395;52.020;113.548;2023-05-07T04:19:14;92602.50;;;19.48
72405;BMP280;60395;52.020;113.548;2023-05-07T04:22:18;92590.22;;;19.53
72405;BMP280;60395;52.020;113.548;2023-05-07T04:25:21;92586.81;;;19.55
72405;BMP280;60395;52.020;113.548;2023-05-07T04:28:25;92597.03;;;19.63
72405;BMP280;60395;52.020;113.548;2023-05-07T04:31:28;92586.69;;;19.70
72405;BMP280;60395;52.020;113.548;2023-05-07T04:34:31;92581.13;;;19.74
72405;BMP280;60395;52.020;113.548;2023-05-07T04:37:36;92586.03;;;20.05
72405;BMP280;60395;52.020;113.548;2023-05-07T04:40:42;92563.13;;;19.97
72405;BMP280;60395;52.020;113.548;2023-05-07T04:43:49;92580.22;;;19.90
72405;BMP280;60395;52.020;113.548;2023-05-07T04:46:56;92555.75;;;19.98
72405;BMP280;60395;52.020;113.548;2023-05-07T04:50:00;92549.34;;;20.05
72405;BMP280;60395;52.020;113.548;2023-05-07T04:53:03;92542.72;;;20.27
72405;BMP280;60395;52.020;113.548;2023-05-07T04:56:06;92529.41;;;20.61
72405;BMP280;60395;52.020;113.548;2023-05-07T04:59:14;92544.91;;;20.69
72405;BMP280;60395;52.020;113.548;2023-05-07T05:02:18;92519.41;;;20.39
72405;BMP280;60395;52.020;113.548;2023-05-07T05:05:22;92527.78;;;20.33
72405;BMP280;60395;52.020;113.548;2023-05-07T05:08:29;92527.91;;;20.41
72405;BMP280;60395;52.020;113.548;2023-05-07T05:11:35;92512.88;;;20.59
72405;BMP280;60395;52.020;113.548;2023-05-07T05:14:39;92526.28;;;20.90
72405;BMP280;60395;52.020;113.548;2023-05-07T05:17:42;92509.25;;;21.07
72405;BMP280;60395;52.020;113.548;2023-05-07T05:20:46;92512.56;;;21.07
72405;BMP280;60395;52.020;113.548;2023-05-07T05:23:50;92498.09;;;21.04
72405;BMP280;60395;52.020;113.548;2023-05-07T05:26:57;92490.94;;;20.79
72405;BMP280;60395;52.020;113.548;2023-05-07T05:30:05;92495.81;;;20.54
72405;BMP280;60395;52.020;113.548;2023-05-07T05:33:09;92484.44;;;20.32
72405;BMP280;60395;52.020;113.548;2023-05-07T05:36:13;92497.84;;;20.19
72405;BMP280;60395;52.020;113.548;2023-05-07T05:39:18;92499.06;;;20.33
72405;BMP280;60395;52.020;113.548;2023-05-07T05:42:21;92501.09;;;20.33
72405;BMP280;60395;52.020;113.548;2023-05-07T05:45:25;92505.00;;;20.23
72405;BMP280;60395;52.020;113.548;2023-05-07T05:48:29;92488.25;;;20.01
72405;BMP280;60395;52.020;113.548;2023-05-07T05:51:35;92490.88;;;19.68
72405;BMP280;60395;52.020;113.548;2023-05-07T05:54:39;92494.56;;;19.73
72405;BMP280;60395;52.020;113.548;2023-05-07T05:57:42;92493.47;;;19.57
72405;BMP280;60395;52.020;113.548;2023-05-07T06:00:46;92483.72;;;19.64
72405;BMP280;60395;52.020;113.548;2023-05-07T06:03:50;92502.88;;;19.79
72405;BMP280;60395;52.020;113.548;2023-05-07T06:06:54;92488.16;;;20.14
72405;BMP280;60395;52.020;113.548;2023-05-07T06:09:58;92500.97;;;20.35
72405;BMP280;60395;52.020;113.548;2023-05-07T06:13:05;92505.19;;;20.42
72405;BMP280;60395;52.020;113.548;2023-05-07T06:16:10;92488.06;;;20.50
72405;BMP280;60395;52.020;113.548;2023-05-07T06:19:13;92497.84;;;20.43
72405;BMP280;60395;52.020;113.548;2023-05-07T06:22:17;92490.19;;;20.37
72405;BMP280;60395;52.020;113.548;2023-05-07T06:25:20;92482.19;;;20.37
72405;BMP280;60395;52.020;113.548;2023-05-07T06:28:23;92503.94;;;20.52
72405;BMP280;60395;52.020;113.548;2023-05-07T06:31:29;92497.84;;;20.53
72405;BMP280;60395;52.020;113.548;2023-05-07T06:34:39;92489.88;;;20.64
72405;BMP280;60395;52.020;113.548;2023-05-07T06:37:44;92488.84;;;20.59
72405;BMP280;60395;52.020;113.548;2023-05-07T06:40:53;92486.31;;;20.57
72405;BMP280;60395;52.020;113.548;2023-05-07T06:43:58;92486.53;;;20.42
72405;BMP280;60395;52.020;113.548;2023-05-07T06:47:07;92508.97;;;20.35
72405;BMP280;60395;52.020;113.548;2023-05-07T06:50:13;92503.19;;;20.19
72405;BMP280;60395;52.020;113.548;2023-05-07T06:53:19;92511.41;;;20.05
72405;BMP280;60395;52.020;113.548;2023-05-07T06:56:23;92494.03;;;19.93
72405;BMP280;60395;52.020;113.548;2023-05-07T06:59:28;92501.81;;;19.97
72405;BMP280;60395;52.020;113.548;2023-05-07T07:02:31;92493.47;;;20.03
72405;BMP280;60395;52.020;113.548;2023-05-07T07:05:35;92502.28;;;19.89
72405;BMP280;60395;52.020;113.548;2023-05-07T07:08:38;92499.38;;;19.70
72405;BMP280;60395;52.020;113.548;2023-05-07T07:11:42;92482.19;;;19.80
72405;BMP280;60395;52.020;113.548;2023-05-07T07:14:45;92497.13;;;19.75
72405;BMP280;60395;52.020;113.548;2023-05-07T07:17:49;92507.38;;;19.70
72405;BMP280;60395;52.020;113.548;2023-05-07T07:20:53;92508.47;;;19.62
72405;BMP280;60395;52.020;113.548;2023-05-07T07:23:56;92496.34;;;19.53
72405;BMP280;60395;52.020;113.548;2023-05-07T07:27:00;92498.91;;;19.55
72405;BMP280;60395;52.020;113.548;2023-05-07T07:30:06;92515.34;;;19.47
72405;BMP280;60395;52.020;113.548;2023-05-07T07:33:12;92492.34;;;19.41
72405;BMP280;60395;52.020;113.548;2023-05-07T07:36:16;92495.72;;;19.52
72405;BMP280;60395;52.020;113.548;2023-05-07T07:39:19;92501.13;;;19.63
72405;BMP280;60395;52.020;113.548;2023-05-07T07:42:25;92497.63;;;19.54
72405;BMP280;60395;52.020;113.548;2023-05-07T07:45:29;92498.66;;;19.59
72405;BMP280;60395;52.020;113.548;2023-05-07T07:48:33;92507.44;;;19.57
72405;BMP280;60395;52.020;113.548;2023-05-07T07:51:36;92500.25;;;19.31
72405;BMP280;60395;52.020;113.548;2023-05-07T07:54:40;92500.47;;;19.27
72405;BMP280;60395;52.020;113.548;2023-05-07T07:57:43;92501.84;;;19.26
72405;BMP280;60395;52.020;113.548;2023-05-07T08:00:47;92495.03;;;19.29
72405;BMP280;60395;52.020;113.548;2023-05-07T08:03:51;92516.44;;;19.27
72405;BMP280;60395;52.020;113.548;2023-05-07T08:06:55;92510.38;;;19.16
72405;BMP280;60395;52.020;113.548;2023-05-07T08:09:59;92506.25;;;19.06
72405;BMP280;60395;52.020;113.548;2023-05-07T08:13:02;92491.03;;;19.05
72405;BMP280;60395;52.020;113.548;2023-05-07T08:16:08;92501.03;;;19.04
72405;BMP280;60395;52.020;113.548;2023-05-07T08:19:12;92511.78;;;19.02
72405;BMP280;60395;52.020;113.548;2023-05-07T08:22:15;92511.91;;;19.00
72405;BMP280;60395;52.020;113.548;2023-05-07T08:25:21;92503.50;;;18.95
72405;BMP280;60395;52.020;113.548;2023-05-07T08:28:24;92520.22;;;18.94
72405;BMP280;60395;52.020;113.548;2023-05-07T08:31:27;92525.63;;;18.92
72405;BMP280;60395;52.020;113.548;2023-05-07T08:34:31;92511.47;;;18.83
72405;BMP280;60395;52.020;113.548;2023-05-07T08:37:37;92517.75;;;18.77
72405;BMP280;60395;52.020;113.548;2023-05-07T08:40:41;92528.06;;;18.71
72405;BMP280;60395;52.020;113.548;2023-05-07T08:43:50;92535.53;;;18.68
72405;BMP280;60395;52.020;113.548;2023-05-07T08:46:56;92545.97;;;18.72
72405;BMP280;60395;52.020;113.548;2023-05-07T08:50:01;92540.00;;;18.59
72405;BMP280;60395;52.020;113.548;2023-05-07T08:53:05;92536.91;;;18.55
72405;BMP280;60395;52.020;113.548;2023-05-07T08:56:08;92542.41;;;18.51
72405;BMP280;60395;52.020;113.548;2023-05-07T08:59:12;92557.09;;;18.50
72405;BMP280;60395;52.020;113.548;2023-05-07T09:02:17;92544.56;;;18.48
72405;BMP280;60395;52.020;113.548;2023-05-07T09:05:21;92556.44;;;18.37
72405;BMP280;60395;52.020;113.548;2023-05-07T09:08:26;92555.72;;;18.11
72405;BMP280;60395;52.020;113.548;2023-05-07T09:11:33;92572.56;;;17.93
72405;BMP280;60395;52.020;113.548;2023-05-07T09:14:37;92581.47;;;17.73
72405;BMP280;60395;52.020;113.548;2023-05-07T09:17:41;92590.19;;;17.71
72405;BMP280;60395;52.020;113.548;2023-05-07T09:20:45;92589.47;;;17.43
72405;BMP280;60395;52.020;113.548;2023-05-07T09:23:54;92602.66;;;17.31
72405;BMP280;60395;52.020;113.548;2023-05-07T09:27:11;92614.72;;;17.28
72405;BMP280;60395;52.020;113.548;2023-05-07T09:30:18;92607.13;;;17.05
72405;BMP280;60395;52.020;113.548;2023-05-07T09:33:27;92611.88;;;17.02
72405;BMP280;60395;52.020;113.548;2023-05-07T09:36:32;92620.34;;;16.90
72405;BMP280;60395;52.020;113.548;2023-05-07T09:42:45;92622.97;;;16.76
72405;BMP280;60395;52.020;113.548;2023-05-07T09:45:50;92610.13;;;16.66
72405;BMP280;60395;52.020;113.548;2023-05-07T09:48:59;92629.22;;;16.54
72405;BMP280;60395;52.020;113.548;2023-05-07T09:52:07;92640.72;;;16.31
72405;BMP280;60395;52.020;113.548;2023-05-07T09:55:19;92639.19;;;16.20
72405;BMP280;60395;52.020;113.548;2023-05-07T09:58:23;92648.97;;;16.07
72405;BMP280;60395;52.020;113.548;2023-05-07T10:01:31;92669.06;;;16.02
72405;BMP280;60395;52.020;113.548;2023-05-07T10:04:35;92667.28;;;15.96
72405;BMP280;60395;52.020;113.548;2023-05-07T10:07:39;92659.66;;;15.88
72405;BMP280;60395;52.020;113.548;2023-05-07T10:10:44;92676.25;;;15.87
72405;BMP280;60395;52.020;113.548;2023-05-07T10:13:52;92679.53;;;15.70
72405;BMP280;60395;52.020;113.548;2023-05-07T10:16:57;92675.16;;;15.63
72405;BMP280;60395;52.020;113.548;2023-05-07T10:20:01;92673.38;;;15.57
72405;BMP280;60395;52.020;113.548;2023-05-07T10:23:07;92690.06;;;15.54
72405;BMP280;60395;52.020;113.548;2023-05-07T10:26:20;92703.44;;;15.50
72405;BMP280;60395;52.020;113.548;2023-05-07T10:32:49;92719.75;;;15.38
72405;BMP280;60395;52.020;113.548;2023-05-07T10:36:02;92727.19;;;15.33
72405;BMP280;60395;52.020;113.548;2023-05-07T10:39:08;92727.25;;;15.12
72405;BMP280;60395;52.020;113.548;2023-05-07T10:42:14;92735.50;;;15.02
72405;BMP280;60395;52.020;113.548;2023-05-07T10:45:23;92751.44;;;15.00
72405;BMP280;60395;52.020;113.548;2023-05-07T10:48:28;92769.66;;;14.90
72405;BMP280;60395;52.020;113.548;2023-05-07T10:51:38;92777.72;;;14.86
72405;BMP280;60395;52.020;113.548;2023-05-07T11:05:22;92806.00;;;14.02
72405;BMP280;60395;52.020;113.548;2023-05-07T11:08:57;92819.72;;;13.84
72405;BMP280;60395;52.020;113.548;2023-05-07T11:12:08;92825.31;;;13.72
72405;BMP280;60395;52.020;113.548;2023-05-07T11:15:44;92832.19;;;13.61
72405;BMP280;60395;52.020;113.548;2023-05-07T11:18:57;92851.97;;;13.37
72405;BMP280;60395;52.020;113.548;2023-05-07T11:25:44;92854.97;;;13.21
72405;BMP280;60395;52.020;113.548;2023-05-07T11:28:55;92863.25;;;13.05
72405;BMP280;60395;52.020;113.548;2023-05-07T11:32:01;92868.47;;;12.80
72405;BMP280;60395;52.020;113.548;2023-05-07T11:35:11;92882.50;;;12.71
72405;BMP280;60395;52.020;113.548;2023-05-07T11:38:15;92894.47;;;12.66
72405;BMP280;60395;52.020;113.548;2023-05-07T11:41:19;92888.72;;;12.57
72405;BMP280;60395;52.020;113.548;2023-05-07T11:44:23;92908.91;;;12.36
72405;BMP280;60395;52.020;113.548;2023-05-07T11:47:30;92910.88;;;12.37
72405;BMP280;60395;52.020;113.548;2023-05-07T11:50:34;92914.03;;;12.09
72405;BMP280;60395;52.020;113.548;2023-05-07T11:53:39;92917.41;;;12.06
72405;BMP280;60395;52.020;113.548;2023-05-07T11:56:44;92926.38;;;11.82
72405;BMP280;60395;52.020;113.548;2023-05-07T11:59:53;92942.94;;;11.74
72405;BMP280;60395;52.020;113.548;2023-05-07T12:02:56;92950.44;;;11.60
72405;BMP280;60395;52.020;113.548;2023-05-07T12:06:09;92953.03;;;11.62
72405;BMP280;60395;52.020;113.548;2023-05-07T12:09:12;92966.50;;;11.42
72405;BMP280;60395;52.020;113.548;2023-05-07T12:12:15;92964.72;;;11.28
72405;BMP280;60395;52.020;113.548;2023-05-07T12:15:23;92970.13;;;11.18
72405;BMP280;60395;52.020;113.548;2023-05-07T12:18:26;92984.72;;;11.09
72405;BMP280;60395;52.020;113.548;2023-05-07T12:21:30;92991.38;;;11.02
72405;BMP280;60395;52.020;113.548;2023-05-07T12:24:48;93008.50;;;10.97
72405;BMP280;60395;52.020;113.548;2023-05-07T12:27:53;93010.00;;;10.84
72405;BMP280;60395;52.020;113.548;2023-05-07T12:30:56;93027.22;;;10.70
72405;BMP280;60395;52.020;113.548;2023-05-07T12:34:00;93029.91;;;10.64
72405;BMP280;60395;52.020;113.548;2023-05-07T12:37:03;93039.81;;;10.60
72405;BMP280;60395;52.020;113.548;2023-05-07T12:40:08;93045.19;;;10.50
72405;BMP280;60395;52.020;113.548;2023-05-07T12:43:23;93056.44;;;10.40
72405;BMP280;60395;52.020;113.548;2023-05-07T12:46:27;93072.97;;;10.24
72405;BMP280;60395;52.020;113.548;2023-05-07T12:49:30;93082.22;;;10.21
72405;BMP280;60395;52.020;113.548;2023-05-07T12:52:34;93085.50;;;10.16
72405;BMP280;60395;52.020;113.548;2023-05-07T12:55:45;93083.03;;;10.02
72405;BMP280;60395;52.020;113.548;2023-05-07T12:58:49;93086.94;;;10.03
72405;BMP280;60395;52.020;113.548;2023-05-07T13:01:53;93098.19;;;9.89
72405;BMP280;60395;52.020;113.548;2023-05-07T13:04:56;93110.00;;;9.86
72405;BMP280;60395;52.020;113.548;2023-05-07T13:08:00;93117.34;;;9.71
72405;BMP280;60395;52.020;113.548;2023-05-07T13:11:04;93131.78;;;9.62
72405;BMP280;60395;52.020;113.548;2023-05-07T13:14:07;93133.19;;;9.51
72405;BMP280;60395;52.020;113.548;2023-05-07T13:17:10;93137.78;;;9.47
72405;BMP280;60395;52.020;113.548;2023-05-07T13:20:14;93152.84;;;9.46
72405;BMP280;60395;52.020;113.548;2023-05-07T13:23:18;93162.03;;;9.45
72405;BMP280;60395;52.020;113.548;2023-05-07T13:26:21;93167.28;;;9.43
72405;BMP280;60395;52.020;113.548;2023-05-07T13:29:28;93172.56;;;9.29
72405;BMP280;60395;52.020;113.548;2023-05-07T13:32:32;93171.91;;;9.29
72405;BMP280;60395;52.020;113.548;2023-05-07T13:35:36;93178.53;;;9.11
72405;BMP280;60395;52.020;113.548;2023-05-07T13:38:39;93175.94;;;8.97
72405;BMP280;60395;52.020;113.548;2023-05-07T13:41:43;93186.41;;;8.89
72405;BMP280;60395;52.020;113.548;2023-05-07T13:44:46;93192.97;;;8.80
72405;BMP280;60395;52.020;113.548;2023-05-07T13:47:49;93195.59;;;8.72
72405;BMP280;60395;52.020;113.548;2023-05-07T13:50:53;93198.22;;;8.78
72405;BMP280;60395;52.020;113.548;2023-05-07T13:53:56;93195.59;;;8.70
72405;BMP280;60395;52.020;113.548;2023-05-07T13:57:01;93202.81;;;8.78
72405;BMP280;60395;52.020;113.548;2023-05-07T14:00:05;93213.94;;;8.76
72405;BMP280;60395;52.020;113.548;2023-05-07T14:03:15;93217.19;;;8.60
72405;BMP280;60395;52.020;113.548;2023-05-07T14:06:20;93225.06;;;8.52
72405;BMP280;60395;52.020;113.548;2023-05-07T14:09:23;93229.63;;;8.50
72405;BMP280;60395;52.020;113.548;2023-05-07T14:12:27;93232.91;;;8.42
72405;BMP280;60395;52.020;113.548;2023-05-07T14:15:30;93228.94;;;8.39
72405;BMP280;60395;52.020;113.548;2023-05-07T14:18:35;93242.69;;;8.34
72405;BMP280;60395;52.020;113.548;2023-05-07T14:21:39;93246.59;;;8.27
72405;BMP280;60395;52.020;113.548;2023-05-07T14:24:42;93240.09;;;8.26
72405;BMP280;60395;52.020;113.548;2023-05-07T14:27:49;93250.53;;;8.24
72405;BMP280;60395;52.020;113.548;2023-05-07T14:30:52;93251.81;;;8.18
72405;BMP280;60395;52.020;113.548;2023-05-07T14:33:56;93254.44;;;8.16
72405;BMP280;60395;52.020;113.548;2023-05-07T14:37:00;93257.03;;;8.12
72405;BMP280;60395;52.020;113.548;2023-05-07T14:40:04;93265.53;;;8.05
72405;BMP280;60395;52.020;113.548;2023-05-07T14:43:08;93264.84;;;7.96
72405;BMP280;60395;52.020;113.548;2023-05-07T14:46:11;93266.78;;;7.90
72405;BMP280;60395;52.020;113.548;2023-05-07T14:49:15;93271.97;;;7.82
72405;BMP280;60395;52.020;113.548;2023-05-07T14:52:21;93277.16;;;7.71
72405;BMP280;60395;52.020;113.548;2023-05-07T14:55:24;93280.41;;;7.64
72405;BMP280;60395;52.020;113.548;2023-05-07T14:58:27;93281.00;;;7.58
72405;BMP280;60395;52.020;113.548;2023-05-07T15:01:30;93285.53;;;7.50
72405;BMP280;60395;52.020;113.548;2023-05-07T15:04:34;93293.31;;;7.40
72405;BMP280;60395;52.020;113.548;2023-05-07T15:07:37;93293.91;;;7.32
72405;BMP280;60395;52.020;113.548;2023-05-07T15:10:40;93282.13;;;7.25
72405;BMP280;60395;52.020;113.548;2023-05-07T15:13:44;93285.97;;;7.18
72405;BMP280;60395;52.020;113.548;2023-05-07T15:16:48;93297.72;;;7.15
72405;BMP280;60395;52.020;113.548;2023-05-07T15:19:51;93296.34;;;7.08
72405;BMP280;60395;52.020;113.548;2023-05-07T15:22:55;93302.81;;;7.01
72405;BMP280;60395;52.020;113.548;2023-05-07T15:25:59;93296.22;;;6.92
72405;BMP280;60395;52.020;113.548;2023-05-07T15:29:04;93300.06;;;6.83
72405;BMP280;60395;52.020;113.548;2023-05-07T15:32:15;93305.84;;;6.73
72405;BMP280;60395;52.020;113.548;2023-05-07T15:35:18;93304.41;;;6.60
72405;BMP280;60395;52.020;113.548;2023-05-07T15:38:25;93309.56;;;6.52
72405;BMP280;60395;52.020;113.548;2023-05-07T15:41:29;93306.19;;;6.41
72405;BMP280;60395;52.020;113.548;2023-05-07T15:44:32;93307.38;;;6.32
72405;BMP280;60395;52.020;113.548;2023-05-07T15:47:37;93315.81;;;6.28
72405;BMP280;60395;52.020;113.548;2023-05-07T15:50:40;93311.22;;;6.25
72405;BMP280;60395;52.020;113.548;2023-05-07T15:53:44;93316.38;;;6.19
72405;BMP280;60395;52.020;113.548;2023-05-07T15:56:47;93322.84;;;6.14
72405;BMP280;60395;52.020;113.548;2023-05-07T15:59:50;93326.00;;;6.06
72405;BMP280;60395;52.020;113.548;2023-05-07T16:02:53;93321.38;;;6.01
72405;BMP280;60395;52.020;113.548;2023-05-07T16:05:57;93325.88;;;5.96
72405;BMP280;60395;52.020;113.548;2023-05-07T16:09:02;93330.38;;;5.92
72405;BMP280;60395;52.020;113.548;2023-05-07T16:12:05;93334.22;;;5.87
72405;BMP280;60395;52.020;113.548;2023-05-07T16:15:09;93341.31;;;5.80
72405;BMP280;60395;52.020;113.548;2023-05-07T16:18:13;93337.78;;;5.61
72405;BMP280;60395;52.020;113.548;2023-05-07T16:21:18;93333.56;;;5.40
72405;BMP280;60395;52.020;113.548;2023-05-07T16:24:21;93339.16;;;5.22
72405;BMP280;60395;52.020;113.548;2023-05-07T16:27:24;93334.41;;;5.11
72405;BMP280;60395;52.020;113.548;2023-05-07T16:30:27;93347.22;;;4.99
72405;BMP280;60395;52.020;113.548;2023-05-07T16:33:31;93350.28;;;4.87
72405;BMP280;60395;52.020;113.548;2023-05-07T16:36:34;93354.59;;;4.74
72405;BMP280;60395;52.020;113.548;2023-05-07T16:39:37;93356.41;;;4.66
72405;BMP280;60395;52.020;113.548;2023-05-07T16:42:41;93357.03;;;4.64
72405;BMP280;60395;52.020;113.548;2023-05-07T16:45:44;93368.03;;;4.61
72405;BMP280;60395;52.020;113.548;2023-05-07T16:48:48;93365.38;;;4.59
72405;BMP280;60395;52.020;113.548;2023-05-07T16:51:51;93367.31;;;4.58
72405;BMP280;60395;52.020;113.548;2023-05-07T16:54:55;93375.09;;;4.58
72405;BMP280;60395;52.020;113.548;2023-05-07T16:58:03;93370.56;;;4.59
72405;BMP280;60395;52.020;113.548;2023-05-07T17:01:07;93373.22;;;4.61
72405;BMP280;60395;52.020;113.548;2023-05-07T17:04:13;93373.16;;;4.59
72405;BMP280;60395;52.020;113.548;2023-05-07T17:07:16;93373.13;;;4.57
72405;BMP280;60395;52.020;113.548;2023-05-07T17:10:19;93374.94;;;4.48
72405;BMP280;60395;52.020;113.548;2023-05-07T17:13:23;93371.44;;;4.35
72405;BMP280;60395;52.020;113.548;2023-05-07T17:16:26;93369.19;;;4.22
72405;BMP280;60395;52.020;113.548;2023-05-07T17:19:29;93363.69;;;4.06
72405;BMP280;60395;52.020;113.548;2023-05-07T17:22:33;93362.94;;;4.01
72405;BMP280;60395;52.020;113.548;2023-05-07T17:25:36;93367.56;;;4.05
72405;BMP280;60395;52.020;113.548;2023-05-07T17:28:39;93364.41;;;4.10
72405;BMP280;60395;52.020;113.548;2023-05-07T17:31:43;93370.34;;;4.13
72405;BMP280;60395;52.020;113.548;2023-05-07T17:34:46;93377.41;;;4.10
72405;BMP280;60395;52.020;113.548;2023-05-07T17:37:49;93379.88;;;4.04